createdAt,value
2022-11-02T00:00:28.206Z,93666.53
2022-11-02T00:02:00.590Z,93668.44
2022-11-02T00:03:32.193Z,93671.94
2022-11-02T00:05:04.779Z,93666.88
2022-11-02T00:06:36.402Z,93671.28
2022-11-02T00:08:07.940Z,93667.59
2022-11-02T00:09:39.616Z,93672.16
2022-11-02T00:11:11.349Z,93673.50
2022-11-02T00:12:43.030Z,93671.38
2022-11-02T00:14:14.660Z,93672.72
2022-11-02T00:15:47.296Z,93677.25
2022-11-02T00:17:18.910Z,93677.44
2022-11-02T00:18:51.250Z,93677.84
2022-11-02T00:20:22.933Z,93670.69
2022-11-02T00:21:55.789Z,93669.38
2022-11-02T00:23:27.309Z,93664.09
2022-11-02T00:24:58.991Z,93673.22
2022-11-02T00:26:30.625Z,93672.63
2022-11-02T00:28:02.711Z,93669.56
2022-11-02T00:29:34.701Z,93666.66
2022-11-02T00:31:06.279Z,93663.75
2022-11-02T00:32:37.923Z,93664.06
2022-11-02T00:34:09.616Z,93666.56
2022-11-02T00:35:41.353Z,93670.38
2022-11-02T00:37:13.109Z,93665.97
2022-11-02T00:38:44.759Z,93671.53
2022-11-02T00:40:16.357Z,93667.16
2022-11-02T00:41:47.908Z,93666.72
2022-11-02T00:43:19.572Z,93662.94
2022-11-02T00:44:51.183Z,93669.44
2022-11-02T00:46:22.758Z,93664.16
2022-11-02T00:47:54.242Z,93665.25
2022-11-02T00:49:25.867Z,93656.97
2022-11-02T00:50:57.731Z,93661.38
2022-11-02T00:52:29.198Z,93649.59
2022-11-02T00:54:00.719Z,93659.66
2022-11-02T00:55:32.240Z,93647.09
2022-11-02T00:57:03.879Z,93655.47
2022-11-02T00:58:35.510Z,93652.50
2022-11-02T01:00:07.552Z,93654.38
2022-11-02T01:01:39.379Z,93652.78
2022-11-02T01:03:10.992Z,93656.00
2022-11-02T01:04:42.627Z,93645.41
2022-11-02T01:06:14.678Z,93645.00
2022-11-02T01:07:46.224Z,93650.38
2022-11-02T01:09:17.868Z,93642.38
2022-11-02T01:10:49.615Z,93644.78
2022-11-02T01:12:21.193Z,93646.81
2022-11-02T01:13:53.106Z,93652.00
2022-11-02T01:15:24.735Z,93648.63
2022-11-02T01:16:58.110Z,93642.72
2022-11-02T01:18:29.652Z,93646.00
2022-11-02T01:20:01.575Z,93648.00
2022-11-02T01:21:33.222Z,93640.00
2022-11-02T01:23:04.941Z,93645.91
2022-11-02T01:24:36.540Z,93651.31
2022-11-02T01:26:09.035Z,93650.50
2022-11-02T01:27:40.733Z,93643.50
2022-11-02T01:29:12.459Z,93642.22
2022-11-02T01:30:44.184Z,93639.28
2022-11-02T01:32:15.813Z,93640.91
2022-11-02T01:33:47.448Z,93642.00
2022-11-02T01:35:19.199Z,93644.69
2022-11-02T01:36:50.888Z,93640.44
2022-11-02T01:38:22.459Z,93647.22
2022-11-02T01:39:54.093Z,93645.31
2022-11-02T01:41:25.851Z,93637.72
2022-11-02T01:42:57.795Z,93647.38
2022-11-02T01:44:33.431Z,93640.22
2022-11-02T01:46:06.096Z,93635.91
2022-11-02T01:47:38.235Z,93647.28
2022-11-02T01:49:10.926Z,93644.19
2022-11-02T01:50:42.695Z,93643.97
2022-11-02T01:52:18.640Z,93640.56
2022-11-02T01:53:50.288Z,93642.47
2022-11-02T01:55:23.072Z,93639.56
2022-11-02T01:56:57.095Z,93643.06
2022-11-02T01:58:28.654Z,93642.56
2022-11-02T02:00:10.096Z,93645.25
2022-11-02T02:01:41.839Z,93644.06
2022-11-02T02:03:18.283Z,93644.38
2022-11-02T02:04:51.618Z,93645.47
2022-11-02T02:06:23.445Z,93648.22
2022-11-02T02:07:55.100Z,93647.72
2022-11-02T02:09:26.687Z,93646.44
2022-11-02T02:10:58.369Z,93644.56
2022-11-02T02:12:30.092Z,93646.44
2022-11-02T02:14:04.436Z,93644.34
2022-11-02T02:15:42.349Z,93650.91
2022-11-02T02:17:29.374Z,93645.09
2022-11-02T02:19:01.298Z,93650.38
2022-11-02T02:20:36.298Z,93645.34
2022-11-02T02:22:07.832Z,93651.41
2022-11-02T02:23:39.499Z,93654.00
2022-11-02T02:25:29.904Z,93649.78
2022-11-02T02:27:06.528Z,93650.94
2022-11-02T02:28:41.319Z,93652.13
2022-11-02T02:30:13.052Z,93652.94
2022-11-02T02:31:55.857Z,93648.13
2022-11-02T02:33:29.909Z,93653.53
2022-11-02T02:35:12.699Z,93640.63
2022-11-02T02:36:52.167Z,93646.31
2022-11-02T02:38:31.486Z,93645.00
2022-11-02T02:40:05.249Z,93652.59
2022-11-02T02:41:40.334Z,93643.50
2022-11-02T02:43:30.754Z,93640.78
2022-11-02T02:45:23.760Z,93654.25
2022-11-02T02:46:56.437Z,93651.63
2022-11-02T02:48:28.861Z,93655.41
2022-11-02T02:50:08.218Z,93653.31
2022-11-02T02:51:41.051Z,93655.19
2022-11-02T02:53:12.756Z,93649.25
2022-11-02T02:54:44.305Z,93646.56
2022-11-02T02:56:16.366Z,93640.38
2022-11-02T02:57:48.772Z,93645.25
2022-11-02T02:59:52.804Z,93653.50
2022-11-02T03:01:24.420Z,93641.19
2022-11-02T03:03:02.030Z,93648.72
2022-11-02T03:04:33.653Z,93645.25
2022-11-02T03:06:07.985Z,93644.78
2022-11-02T03:07:39.596Z,93641.66
2022-11-02T03:09:17.080Z,93642.03
2022-11-02T03:10:49.200Z,93650.97
2022-11-02T03:12:39.611Z,93640.84
2022-11-02T03:14:23.889Z,93647.63
2022-11-02T03:15:59.901Z,93642.13
2022-11-02T03:17:42.605Z,93644.88
2022-11-02T03:19:17.113Z,93649.75
2022-11-02T03:21:00.630Z,93643.84
2022-11-02T03:22:39.963Z,93640.34
2022-11-02T03:24:11.550Z,93636.88
2022-11-02T03:25:49.718Z,93633.16
2022-11-02T03:27:22.932Z,93637.00
2022-11-02T03:29:02.570Z,93643.97
2022-11-02T03:30:34.767Z,93633.75
2022-11-02T03:32:23.422Z,93630.47
2022-11-02T03:33:57.235Z,93636.63
2022-11-02T03:35:31.603Z,93629.31
2022-11-02T03:38:50.617Z,93633.41
2022-11-02T03:40:26.141Z,93624.72
2022-11-02T03:41:57.638Z,93621.97
2022-11-02T03:43:29.821Z,93623.22
2022-11-02T03:45:02.844Z,93615.56
2022-11-02T03:46:34.478Z,93623.88
2022-11-02T03:48:06.891Z,93614.72
2022-11-02T03:49:39.992Z,93622.47
2022-11-02T03:51:15.317Z,93615.19
2022-11-02T03:52:47.373Z,93612.03
2022-11-02T03:54:54.822Z,93612.31
2022-11-02T03:56:30.337Z,93610.41
2022-11-02T03:58:02.316Z,93612.22
2022-11-02T03:59:34.122Z,93608.94
2022-11-02T04:01:08.494Z,93604.09
2022-11-02T04:02:40.181Z,93605.88
2022-11-02T04:04:11.849Z,93609.59
2022-11-02T04:05:43.442Z,93611.72
2022-11-02T04:07:15.565Z,93613.59
2022-11-02T04:08:47.595Z,93608.28
2022-11-02T04:10:19.576Z,93614.28
2022-11-02T04:12:09.431Z,93607.88
2022-11-02T04:13:59.873Z,93608.66
2022-11-02T04:15:31.395Z,93604.16
2022-11-02T04:17:21.477Z,93611.50
2022-11-02T04:19:11.939Z,93610.19
2022-11-02T04:20:43.584Z,93616.94
2022-11-02T04:22:33.503Z,93608.97
2022-11-02T04:24:23.841Z,93617.09
2022-11-02T04:25:55.914Z,93616.34
2022-11-02T04:27:27.555Z,93611.84
2022-11-02T04:28:59.088Z,93617.22
2022-11-02T04:30:30.586Z,93616.19
2022-11-02T04:32:02.054Z,93623.44
2022-11-02T04:33:33.729Z,93615.97
2022-11-02T04:35:05.631Z,93622.72
2022-11-02T04:36:37.620Z,93617.91
2022-11-02T04:38:27.968Z,93622.78
2022-11-02T04:39:59.575Z,93626.88
2022-11-02T04:41:43.096Z,93629.56
2022-11-02T04:43:14.774Z,93620.97
2022-11-02T04:44:46.391Z,93626.34
2022-11-02T04:46:18.118Z,93627.72
2022-11-02T04:47:49.840Z,93629.88
2022-11-02T04:49:22.721Z,93621.91
2022-11-02T04:50:54.314Z,93631.09
2022-11-02T04:52:25.875Z,93622.88
2022-11-02T04:53:58.032Z,93625.91
2022-11-02T04:55:29.728Z,93634.03
2022-11-02T04:57:01.475Z,93629.78
2022-11-02T04:58:33.083Z,93631.97
2022-11-02T05:00:07.424Z,93624.41
2022-11-02T05:01:39.196Z,93626.81
2022-11-02T05:03:12.520Z,93629.78
2022-11-02T05:04:44.313Z,93625.81
2022-11-02T05:06:16.318Z,93634.38
2022-11-02T05:07:47.851Z,93636.28
2022-11-02T05:09:19.372Z,93638.72
2022-11-02T05:10:54.001Z,93638.47
2022-11-02T05:12:29.126Z,93639.34
2022-11-02T05:14:01.494Z,93639.63
2022-11-02T05:15:33.438Z,93640.44
2022-11-02T05:17:05.474Z,93634.47
2022-11-02T05:18:37.134Z,93636.34
2022-11-02T05:20:08.982Z,93639.28
2022-11-02T05:21:40.542Z,93651.63
2022-11-02T05:23:12.037Z,93652.72
2022-11-02T05:24:43.677Z,93655.41
2022-11-02T05:26:15.455Z,93640.09
2022-11-02T05:27:46.947Z,93646.78
2022-11-02T05:29:18.642Z,93650.25
2022-11-02T05:30:50.398Z,93658.31
2022-11-02T05:32:21.898Z,93658.88
2022-11-02T05:33:53.563Z,93659.41
2022-11-02T05:35:25.147Z,93660.72
2022-11-02T05:36:56.802Z,93665.22
2022-11-02T05:38:28.628Z,93666.28
2022-11-02T05:40:00.254Z,93656.03
2022-11-02T05:41:31.793Z,93664.63
2022-11-02T05:43:04.221Z,93662.16
2022-11-02T05:44:36.154Z,93666.41
2022-11-02T05:46:08.148Z,93666.91
2022-11-02T05:47:39.725Z,93671.13
2022-11-02T05:49:11.413Z,93671.28
2022-11-02T05:50:42.946Z,93673.38
2022-11-02T05:52:14.580Z,93678.63
2022-11-02T05:53:46.290Z,93676.88
2022-11-02T05:55:17.904Z,93676.53
2022-11-02T05:56:49.530Z,93678.28
2022-11-02T05:58:21.078Z,93679.75
2022-11-02T05:59:52.856Z,93683.09
2022-11-02T06:01:24.624Z,93687.84
2022-11-02T06:02:57.421Z,93684.06
2022-11-02T06:04:29.060Z,93687.19
2022-11-02T06:06:01.376Z,93687.31
2022-11-02T06:07:33.003Z,93686.69
2022-11-02T06:09:07.354Z,93693.81
2022-11-02T06:10:42.722Z,93692.31
2022-11-02T06:12:14.947Z,93699.94
2022-11-02T06:13:49.426Z,93694.97
2022-11-02T06:15:21.004Z,93700.50
2022-11-02T06:16:53.073Z,93684.25
2022-11-02T06:18:24.627Z,93697.63
2022-11-02T06:19:56.438Z,93685.66
2022-11-02T06:21:28.045Z,93693.28
2022-11-02T06:22:59.716Z,93700.09
2022-11-02T06:24:31.293Z,93695.25
2022-11-02T06:26:02.966Z,93702.22
2022-11-02T06:27:34.571Z,93703.94
2022-11-02T06:29:06.395Z,93704.84
2022-11-02T06:30:37.911Z,93710.53
2022-11-02T06:32:09.527Z,93707.72
2022-11-02T06:33:41.238Z,93710.13
2022-11-02T06:35:13.685Z,93709.31
2022-11-02T06:36:45.300Z,93702.31
2022-11-02T06:38:17.129Z,93708.22
2022-11-02T06:39:48.897Z,93709.22
2022-11-02T06:41:20.462Z,93708.69
2022-11-02T06:43:15.433Z,93718.97
2022-11-02T06:44:48.528Z,93712.44
2022-11-02T06:46:20.096Z,93711.75
2022-11-02T06:47:51.784Z,93714.47
2022-11-02T06:49:23.675Z,93711.31
2022-11-02T06:50:55.401Z,93710.09
2022-11-02T06:52:27.720Z,93715.28
2022-11-02T06:54:01.247Z,93713.56
2022-11-02T06:55:36.139Z,93714.94
2022-11-02T06:57:07.812Z,93707.34
2022-11-02T06:58:39.425Z,93711.25
2022-11-02T07:00:14.593Z,93713.81
2022-11-02T07:01:52.659Z,93707.66
2022-11-02T07:03:24.384Z,93711.22
2022-11-02T07:04:56.925Z,93711.09
2022-11-02T07:06:28.475Z,93706.53
2022-11-02T07:08:00.205Z,93700.56
2022-11-02T07:09:32.367Z,93707.59
2022-11-02T07:11:04.903Z,93700.81
2022-11-02T07:12:36.530Z,93703.09
2022-11-02T07:14:08.250Z,93703.94
2022-11-02T07:15:40.219Z,93703.84
2022-11-02T07:17:11.874Z,93698.16
2022-11-02T07:18:43.524Z,93697.84
2022-11-02T07:20:15.156Z,93699.88
2022-11-02T07:21:47.851Z,93702.44
2022-11-02T07:23:23.732Z,93695.44
2022-11-02T07:24:55.445Z,93695.63
2022-11-02T07:26:27.273Z,93696.06
2022-11-02T07:28:00.206Z,93697.22
2022-11-02T07:29:31.881Z,93696.13
2022-11-02T07:31:03.402Z,93695.81
2022-11-02T07:32:41.579Z,93694.84
2022-11-02T07:34:16.976Z,93696.19
2022-11-02T07:35:48.961Z,93688.38
2022-11-02T07:37:20.501Z,93693.03
2022-11-02T07:38:52.269Z,93689.38
2022-11-02T07:40:23.928Z,93690.66
2022-11-02T07:41:55.792Z,93690.00
2022-11-02T07:43:27.490Z,93688.22
2022-11-02T07:44:58.981Z,93689.16
2022-11-02T07:46:30.583Z,93688.31
2022-11-02T07:48:02.640Z,93688.28
2022-11-02T07:49:34.297Z,93680.31
2022-11-02T07:51:07.853Z,93683.63
2022-11-02T07:52:46.703Z,93680.44
2022-11-02T07:54:18.393Z,93677.69
2022-11-02T07:55:49.941Z,93682.50
2022-11-02T07:57:21.628Z,93679.16
2022-11-02T07:58:53.176Z,93677.88
2022-11-02T08:00:25.450Z,93681.66
2022-11-02T08:01:57.265Z,93679.09
2022-11-02T08:03:29.210Z,93679.34
2022-11-02T08:05:00.975Z,93675.25
2022-11-02T08:06:32.525Z,93672.38
2022-11-02T08:08:05.032Z,93666.09
2022-11-02T08:09:36.937Z,93669.81
2022-11-02T08:11:08.740Z,93662.66
2022-11-02T08:12:40.340Z,93675.22
2022-11-02T08:14:11.923Z,93670.06
2022-11-02T08:15:43.405Z,93671.31
2022-11-02T08:17:15.069Z,93675.09
2022-11-02T08:18:46.973Z,93667.66
2022-11-02T08:20:19.965Z,93662.69
2022-11-02T08:21:51.573Z,93667.16
2022-11-02T08:23:23.223Z,93660.75
2022-11-02T08:24:55.029Z,93653.06
2022-11-02T08:26:26.588Z,93663.56
2022-11-02T08:27:59.275Z,93655.63
2022-11-02T08:29:30.984Z,93654.75
2022-11-02T08:31:02.487Z,93654.63
2022-11-02T08:32:34.137Z,93654.34
2022-11-02T08:34:05.709Z,93654.16
2022-11-02T08:35:38.507Z,93655.63
2022-11-02T08:37:10.184Z,93651.78
2022-11-02T08:38:42.710Z,93648.38
2022-11-02T08:40:14.295Z,93653.13
2022-11-02T08:41:45.904Z,93650.84
2022-11-02T08:43:17.531Z,93654.84
2022-11-02T08:44:49.261Z,93648.81
2022-11-02T08:46:20.830Z,93647.19
2022-11-02T08:47:52.469Z,93648.41
2022-11-02T08:49:24.142Z,93643.25
2022-11-02T08:50:56.459Z,93644.47
2022-11-02T08:52:28.096Z,93637.47
2022-11-02T08:53:59.787Z,93643.47
2022-11-02T08:55:31.540Z,93657.59
2022-11-02T08:57:03.357Z,93642.16
2022-11-02T08:58:35.379Z,93642.38
2022-11-02T09:00:07.365Z,93636.84
2022-11-02T09:01:39.436Z,93635.78
2022-11-02T09:03:12.565Z,93640.81
2022-11-02T09:04:44.148Z,93637.00
2022-11-02T09:06:15.790Z,93631.72
2022-11-02T09:07:47.505Z,93632.81
2022-11-02T09:09:19.019Z,93632.28
2022-11-02T09:10:51.630Z,93633.69
2022-11-02T09:12:23.278Z,93629.66
2022-11-02T09:13:57.270Z,93629.59
2022-11-02T09:15:29.071Z,93635.44
2022-11-02T09:17:00.685Z,93628.50
2022-11-02T09:18:32.220Z,93633.81
2022-11-02T09:20:04.173Z,93624.03
2022-11-02T09:21:35.890Z,93624.16
2022-11-02T09:23:07.521Z,93622.78
2022-11-02T09:24:39.087Z,93629.22
2022-11-02T09:26:10.682Z,93621.78
2022-11-02T09:27:42.415Z,93623.31
2022-11-02T09:29:14.105Z,93620.47
2022-11-02T09:30:45.898Z,93618.06
2022-11-02T09:32:17.480Z,93615.81
2022-11-02T09:33:49.057Z,93612.19
2022-11-02T09:35:21.044Z,93614.44
2022-11-02T09:36:52.640Z,93613.72
2022-11-02T09:38:24.275Z,93613.16
2022-11-02T09:39:56.090Z,93616.16
2022-11-02T09:41:30.963Z,93612.28
2022-11-02T09:43:15.260Z,93605.03
2022-11-02T09:44:49.443Z,93596.56
2022-11-02T09:46:30.201Z,93597.91
2022-11-02T09:48:16.376Z,93596.97
2022-11-02T09:49:49.655Z,93588.97
2022-11-02T09:51:21.967Z,93588.63
2022-11-02T09:52:54.902Z,93597.44
2022-11-02T09:54:34.065Z,93592.84
2022-11-02T09:56:05.831Z,93589.91
2022-11-02T09:57:37.402Z,93589.22
2022-11-02T09:59:11.646Z,93580.66
2022-11-02T10:00:43.486Z,93578.28
2022-11-02T10:02:23.851Z,93585.84
2022-11-02T10:03:55.505Z,93578.16
2022-11-02T10:05:43.065Z,93580.09
2022-11-02T10:07:26.520Z,93578.44
2022-11-02T10:09:08.829Z,93579.31
2022-11-02T10:10:42.941Z,93575.47
2022-11-02T10:12:15.487Z,93572.91
2022-11-02T10:13:51.284Z,93568.34
2022-11-02T10:15:31.634Z,93570.75
2022-11-02T10:17:11.732Z,93559.03
2022-11-02T10:18:43.574Z,93565.84
2022-11-02T10:20:35.525Z,93563.16
2022-11-02T10:22:08.760Z,93554.88
2022-11-02T10:23:41.168Z,93558.09
2022-11-02T10:25:14.123Z,93550.22
2022-11-02T10:26:45.724Z,93552.59
2022-11-02T10:28:19.207Z,93552.69
2022-11-02T10:30:06.155Z,93549.19
2022-11-02T10:31:37.738Z,93543.00
2022-11-02T10:33:16.935Z,93554.09
2022-11-02T10:34:58.518Z,93550.59
2022-11-02T10:36:33.769Z,93542.03
2022-11-02T10:38:16.867Z,93540.50
2022-11-02T10:40:01.316Z,93533.44
2022-11-02T10:41:59.197Z,93532.66
2022-11-02T10:43:52.151Z,93535.81
2022-11-02T10:45:32.649Z,93527.94
2022-11-02T10:47:20.486Z,93523.22
2022-11-02T10:49:00.923Z,93516.97
2022-11-02T10:50:52.837Z,93515.00
2022-11-02T10:52:24.381Z,93513.84
2022-11-02T10:53:56.184Z,93514.22
2022-11-02T10:55:43.358Z,93513.06
2022-11-02T10:57:15.284Z,93505.50
2022-11-02T10:58:58.279Z,93496.44
2022-11-02T11:00:33.575Z,93499.50
2022-11-02T11:02:09.252Z,93499.91
2022-11-02T11:03:59.376Z,93497.91
2022-11-02T11:05:31.546Z,93497.47
2022-11-02T11:07:06.872Z,93490.75
2022-11-02T11:08:41.840Z,93496.31
2022-11-02T11:10:16.425Z,93493.94
2022-11-02T11:11:55.237Z,93484.84
2022-11-02T11:21:08.709Z,93472.09
2022-11-02T11:22:40.466Z,93467.34
2022-11-02T11:24:32.253Z,93473.22
2022-11-02T11:26:04.715Z,93469.59
2022-11-02T11:27:45.464Z,93467.59
2022-11-02T11:29:23.622Z,93461.25
2022-11-02T11:31:02.356Z,93466.41
2022-11-02T11:32:35.395Z,93454.50
2022-11-02T11:34:19.508Z,93468.00
2022-11-02T11:35:51.201Z,93451.75
2022-11-02T11:37:23.332Z,93455.63
2022-11-02T11:38:55.965Z,93446.53
2022-11-02T11:40:27.912Z,93452.38
2022-11-02T11:41:59.470Z,93444.38
2022-11-02T11:43:34.068Z,93450.28
2022-11-02T11:45:06.887Z,93439.09
2022-11-02T11:46:39.199Z,93447.75
2022-11-02T11:48:29.105Z,93435.06
2022-11-02T11:50:13.418Z,93440.84
2022-11-02T11:51:53.176Z,93441.56
2022-11-02T11:53:25.361Z,93444.66
2022-11-02T11:54:57.730Z,93436.28
2022-11-02T11:56:29.828Z,93442.13
2022-11-02T11:58:05.001Z,93436.88
2022-11-02T11:59:42.858Z,93431.22
2022-11-02T12:01:17.919Z,93430.28
2022-11-02T12:03:01.884Z,93424.34
2022-11-02T12:04:34.803Z,93426.88
2022-11-02T12:06:12.073Z,93418.66
2022-11-02T12:07:53.467Z,93420.00
2022-11-02T12:09:27.441Z,93415.09
2022-11-02T12:10:59.102Z,93419.03
2022-11-02T12:12:31.175Z,93410.72
2022-11-02T12:14:08.840Z,93411.09
2022-11-02T12:15:52.387Z,93407.06
2022-11-02T12:17:24.596Z,93410.75
2022-11-02T12:19:14.728Z,93414.19
2022-11-02T12:20:51.974Z,93407.59
2022-11-02T12:22:24.468Z,93411.47
2022-11-02T12:23:56.104Z,93406.97
2022-11-02T12:25:46.989Z,93399.31
2022-11-02T12:27:21.460Z,93399.94
2022-11-02T12:29:12.160Z,93396.66
2022-11-02T12:30:56.193Z,93396.19
2022-11-02T12:32:42.537Z,93404.16
2022-11-02T12:34:22.154Z,93398.81
2022-11-02T12:35:56.789Z,93397.06
2022-11-02T12:37:47.211Z,93400.09
2022-11-02T12:39:25.003Z,93385.63
2022-11-02T12:41:09.604Z,93390.97
2022-11-02T12:42:47.708Z,93386.00
2022-11-02T12:44:38.734Z,93389.53
2022-11-02T12:46:22.486Z,93376.28
2022-11-02T12:47:57.775Z,93385.81
2022-11-02T12:49:55.952Z,93385.75
2022-11-02T12:51:32.855Z,93380.19
2022-11-02T12:53:07.615Z,93389.69
2022-11-02T12:54:42.501Z,93377.78
2022-11-02T12:56:17.024Z,93375.44
2022-11-02T12:57:48.611Z,93378.63
2022-11-02T12:59:29.404Z,93371.50
2022-11-02T13:01:02.236Z,93371.56
2022-11-02T13:02:45.395Z,93371.66
2022-11-02T13:04:26.012Z,93368.94
2022-11-02T13:06:06.545Z,93370.06
2022-11-02T13:07:40.057Z,93366.09
2022-11-02T13:09:20.762Z,93360.59
2022-11-02T13:10:56.927Z,93358.34
2022-11-02T13:12:28.639Z,93363.88
2022-11-02T13:14:00.348Z,93355.09
2022-11-02T13:15:33.672Z,93362.66
2022-11-02T13:17:21.089Z,93360.84
2022-11-02T13:18:53.989Z,93356.22
2022-11-02T13:20:34.119Z,93358.63
2022-11-02T13:22:05.983Z,93359.44
2022-11-02T13:23:43.801Z,93355.44
2022-11-02T13:25:15.488Z,93356.00
2022-11-02T13:26:53.210Z,93358.06
2022-11-02T13:28:34.141Z,93363.28
2022-11-02T13:30:06.594Z,93359.78
2022-11-02T13:31:39.876Z,93359.47
2022-11-02T13:33:14.172Z,93360.38
2022-11-02T13:34:46.173Z,93354.41
2022-11-02T13:36:18.049Z,93356.06
2022-11-02T13:37:51.376Z,93356.06
2022-11-02T13:39:24.642Z,93359.63
2022-11-02T13:41:19.257Z,93355.75
2022-11-02T13:42:50.888Z,93349.13
2022-11-02T13:44:41.159Z,93355.53
2022-11-02T13:46:30.796Z,93348.09
2022-11-02T13:48:05.735Z,93348.66
2022-11-02T13:49:40.864Z,93347.56
2022-11-02T13:51:24.138Z,93352.00
2022-11-02T13:52:56.879Z,93350.97
2022-11-02T13:54:47.284Z,93351.38
2022-11-02T13:56:23.083Z,93345.13
2022-11-02T13:57:57.668Z,93346.44
2022-11-02T13:59:42.216Z,93345.00
2022-11-02T14:01:16.332Z,93354.25
2022-11-02T14:02:48.480Z,93340.47
2022-11-02T14:04:20.420Z,93340.94
2022-11-02T14:05:56.319Z,93355.19
2022-11-02T14:07:39.051Z,93347.31
2022-11-02T14:09:10.637Z,93342.66
2022-11-02T14:10:42.684Z,93347.88
2022-11-02T14:12:23.245Z,93336.88
2022-11-02T14:13:55.227Z,93345.25
2022-11-02T14:15:26.904Z,93337.03
2022-11-02T14:16:58.911Z,93341.38
2022-11-02T14:18:31.537Z,93343.81
2022-11-02T14:20:05.410Z,93343.88
2022-11-02T14:21:40.345Z,93343.16
2022-11-02T14:23:13.150Z,93337.75
2022-11-02T14:24:49.609Z,93348.53
2022-11-02T14:26:30.971Z,93349.81
2022-11-02T14:28:22.809Z,93341.56
2022-11-02T14:29:54.843Z,93352.34
2022-11-02T14:31:29.502Z,93350.84
2022-11-02T14:33:02.975Z,93350.88
2022-11-02T14:34:50.532Z,93341.09
2022-11-02T14:36:26.797Z,93341.59
2022-11-02T14:37:58.410Z,93344.03
2022-11-02T14:40:06.167Z,93345.28
2022-11-02T14:41:46.567Z,93353.22
2022-11-02T14:43:37.073Z,93353.69
2022-11-02T14:45:18.191Z,93355.28
2022-11-02T14:46:49.883Z,93361.63
2022-11-02T14:48:21.454Z,93356.94
2022-11-02T14:49:56.270Z,93348.69
2022-11-02T14:51:29.094Z,93359.38
2022-11-02T14:53:02.273Z,93350.69
2022-11-02T14:54:36.289Z,93346.00
2022-11-02T14:56:08.080Z,93355.06
2022-11-02T14:57:40.984Z,93352.69
2022-11-02T14:59:16.173Z,93348.38
2022-11-02T15:00:47.836Z,93349.94
2022-11-02T15:02:24.687Z,93352.31
2022-11-02T15:03:56.421Z,93350.34
2022-11-02T15:05:33.154Z,93353.88
2022-11-02T15:07:05.102Z,93356.22
2022-11-02T15:08:48.354Z,93343.59
2022-11-02T15:10:20.001Z,93355.78
2022-11-02T15:11:52.395Z,93343.13
2022-11-02T15:13:26.647Z,93353.31
2022-11-02T15:15:16.955Z,93361.91
2022-11-02T15:16:48.728Z,93358.66
2022-11-02T15:18:29.468Z,93357.00
2022-11-02T15:20:10.287Z,93361.28
2022-11-02T15:21:41.829Z,93357.66
2022-11-02T15:23:26.465Z,93358.75
2022-11-02T15:25:06.267Z,93350.81
2022-11-02T15:26:42.286Z,93354.31
2022-11-02T15:28:21.182Z,93355.41
2022-11-02T15:29:53.208Z,93360.03
2022-11-02T15:31:26.328Z,93363.91
2022-11-02T15:33:05.359Z,93363.00
2022-11-02T15:34:39.723Z,93357.41
2022-11-02T15:36:16.318Z,93361.22
2022-11-02T15:38:11.246Z,93368.56
2022-11-02T15:39:40.432Z,93364.97
2022-11-02T15:41:24.229Z,93365.34
2022-11-02T15:43:33.097Z,93364.88
2022-11-02T15:45:14.341Z,93371.81
2022-11-02T15:46:56.850Z,93376.44
2022-11-02T15:48:32.451Z,93373.25
2022-11-02T15:50:13.339Z,93370.03
2022-11-02T15:51:55.248Z,93371.44
2022-11-02T15:53:41.965Z,93382.31
2022-11-02T15:55:13.789Z,93377.16
2022-11-02T15:56:45.383Z,93382.91
2022-11-02T15:58:20.771Z,93373.47
2022-11-02T16:00:22.036Z,93384.06
2022-11-02T16:02:06.389Z,93385.47
2022-11-02T16:03:38.450Z,93387.75
2022-11-02T16:05:15.909Z,93388.03
2022-11-02T16:06:47.920Z,93391.91
2022-11-02T16:08:24.299Z,93387.09
2022-11-02T16:10:10.444Z,93386.19
2022-11-02T16:11:41.990Z,93391.56
2022-11-02T16:13:17.495Z,93394.63
2022-11-02T16:14:59.364Z,93389.81
2022-11-02T16:16:35.685Z,93388.13
2022-11-02T16:18:22.111Z,93387.28
2022-11-02T16:20:06.109Z,93394.97
2022-11-02T16:21:37.787Z,93390.22
2022-11-02T16:23:12.383Z,93399.50
2022-11-02T16:24:44.593Z,93393.13
2022-11-02T16:26:22.954Z,93400.53
2022-11-02T16:27:54.656Z,93399.28
2022-11-02T16:29:36.551Z,93410.56
2022-11-02T16:31:17.395Z,93415.25
2022-11-02T16:32:52.926Z,93407.69
2022-11-02T16:34:25.933Z,93415.44
2022-11-02T16:35:58.137Z,93414.31
2022-11-02T16:37:29.769Z,93413.16
2022-11-02T16:39:04.380Z,93415.53
2022-11-02T16:40:36.161Z,93426.34
2022-11-02T16:42:09.021Z,93415.34
2022-11-02T16:43:45.598Z,93424.69
2022-11-02T16:45:37.089Z,93425.06
2022-11-02T16:47:13.545Z,93424.34
2022-11-02T16:49:11.744Z,93420.88
2022-11-02T16:51:03.947Z,93427.50
2022-11-02T16:52:35.897Z,93424.69
2022-11-02T16:54:25.595Z,93429.72
2022-11-02T16:56:00.760Z,93426.19
2022-11-02T16:57:34.602Z,93431.63
2022-11-02T16:59:06.297Z,93430.41
2022-11-02T17:00:37.954Z,93434.63
2022-11-02T17:02:09.807Z,93434.28
2022-11-02T17:03:42.201Z,93443.19
2022-11-02T17:05:17.611Z,93436.09
2022-11-02T17:06:49.824Z,93441.06
2022-11-02T17:08:32.123Z,93439.41
2022-11-02T17:10:04.143Z,93455.31
2022-11-02T17:11:35.770Z,93447.03
2022-11-02T17:13:07.777Z,93447.31
2022-11-02T17:14:45.742Z,93450.41
2022-11-02T17:16:18.472Z,93450.28
2022-11-02T17:17:50.675Z,93452.47
2022-11-02T17:19:40.762Z,93459.41
2022-11-02T17:21:12.624Z,93456.56
2022-11-02T17:22:51.477Z,93455.63
2022-11-02T17:24:30.341Z,93456.88
2022-11-02T17:26:20.710Z,93454.53
2022-11-02T17:27:52.837Z,93455.75
2022-11-02T17:29:24.362Z,93456.31
2022-11-02T17:30:56.066Z,93449.50
2022-11-02T17:32:27.691Z,93456.38
2022-11-02T17:34:00.622Z,93460.34
2022-11-02T17:35:32.213Z,93459.47
2022-11-02T17:37:04.263Z,93455.06
2022-11-02T17:38:36.223Z,93460.88
2022-11-02T17:40:09.626Z,93454.97
2022-11-02T17:42:00.261Z,93453.28
2022-11-02T17:43:31.846Z,93461.81
2022-11-02T17:45:21.528Z,93455.13
2022-11-02T17:46:54.612Z,93460.50
2022-11-02T17:48:28.577Z,93456.88
2022-11-02T17:50:00.212Z,93465.41
2022-11-02T17:51:32.081Z,93464.91
2022-11-02T17:53:03.975Z,93464.00
2022-11-02T17:54:36.081Z,93461.16
2022-11-02T17:56:09.022Z,93463.81
2022-11-02T17:57:40.686Z,93457.22
2022-11-02T17:59:12.211Z,93464.97
2022-11-02T18:00:43.882Z,93465.31
2022-11-02T18:02:16.172Z,93457.38
2022-11-02T18:03:47.978Z,93469.00
2022-11-02T18:05:23.472Z,93466.38
2022-11-02T18:06:55.423Z,93461.41
2022-11-02T18:08:27.022Z,93467.22
2022-11-02T18:09:59.154Z,93474.63
2022-11-02T18:11:30.838Z,93471.91
2022-11-02T18:13:02.751Z,93470.66
2022-11-02T18:14:36.721Z,93477.13
2022-11-02T18:16:08.794Z,93475.53
2022-11-02T18:17:40.472Z,93479.75
2022-11-02T18:19:12.443Z,93476.47
2022-11-02T18:20:43.997Z,93482.63
2022-11-02T18:22:15.766Z,93479.88
2022-11-02T18:23:47.446Z,93476.28
2022-11-02T18:26:56.162Z,93473.09
2022-11-02T18:28:27.861Z,93475.38
2022-11-02T18:29:59.432Z,93472.19
2022-11-02T18:31:31.477Z,93480.25
2022-11-02T18:33:03.166Z,93478.59
2022-11-02T18:34:34.941Z,93476.53
2022-11-02T18:36:07.243Z,93475.75
2022-11-02T18:37:39.083Z,93482.31
2022-11-02T18:39:10.586Z,93474.41
2022-11-02T18:40:42.245Z,93478.63
2022-11-02T18:42:13.873Z,93481.47
2022-11-02T18:43:45.408Z,93479.63
2022-11-02T18:45:17.064Z,93478.94
2022-11-02T18:46:48.775Z,93483.06
2022-11-02T18:48:20.454Z,93484.06